首页
METAR-TAF:

METAR-TAF

机场 :

Sandy Lake, 安大略省, 加拿大

纬度: 53-03-51N, 经度: 093-20-40W, 海拔: 290米

当前天气观测

该预报发布于48分钟前的10:00 UTC
风速3节,风向西转西北
温度 9°C
湿度 100%
气压 1021 hPa
能見度: 1.2公里
天空无云
轻雾

METAR: CZSJ 011000Z AUTO 30003KT 3/4SM BR CLR 09/09 A3016 RMK SLP221

时间: 05:48 (10:48 UTC)

预报

该预报发布于30分钟前的10:18 UTC
预报有效从01日的 10点(UTC)到 01日的 22点(UTC)
风速5节,风向西转西北
能見度: 9.7公里
少量云层高于3000英尺
轻雾
短暂存在
从 01日的 10点(UTC)到 01日的 13点(UTC)
能見度: 1.6公里
轻雾
从 01日的 1300点(UTC)
风速6节,风向西转西北
能見度: 10公里
天空无云
从 01日的 1600点(UTC)
风速8节,风向西北
能見度: 10公里
少量云层高于5000英尺
散云层高于14000英尺

TAF: CZSJ 011018Z 0110/0122 30005KT 6SM BR FEW030 TEMPO 0110/0113 1SM BR FM011300 30006KT P6SM SKC FM011600 32008KT P6SM FEW050 SCT140 RMK FCST BASED ON AUTO OBS. NXT FCST BY 011600Z

超过4000个机场的气象观测和天气预报(METAR&TAF报告)。

可查询的气象台以黄色和红色小点在地图上表示。

将鼠标移到小点上方,可查看气象台名称。

然后点击查看天气观测和预报。

如需切换地图:点击带黑十字的绿色按钮放大地图;点击带横线的绿色按钮缩小地图;或者点击绿色箭头查看邻近地区的地图。


METAR-TAF: